Nearby METAR Reports

 

KCPC - Whiteville, North Carolina, USA
Distance from station: NNE 17mi, 28km
Updated: 08/09/2020 6:35pm
NOT Current
Light rain, Overcast
Light rain, Overcast
 Wind from E
Wind: E 21 mph , 33 km/h, Gust: 25 mph , 41 km/h
Temperature: 79°F , 26°C
Dew Point: 72°F , 22°C
Humidity: 79%
Barometer: 30.12 inHg , 1020 hPa
Summary: Light rain
Clouds: Overcast
Visibility: 7 miles , 11 km
Cloud details: Partly cloudy 3200 ft
Mostly cloudy 3800 ft
Overcast 4500 ft
2020/08/09 22:35 KCPC 092235Z AUTO 08018G22KT 7SM -RA SCT032 BKN038 OVC045 26/22 A3012 RMK AO2 P0001 T02610215
KCRE - North Myrtle Bea, South Carolina, USA
Distance from station: SSE 19mi, 31km
Updated: 08/13/2020 12:53pm
Clear
Clear
 Wind from S
Wind: S 10 mph , 17 km/h
Temperature: 84°F , 29°C
Heat Index: 92°F , 33°C
Dew Point: 75°F , 24°C
Humidity: 74%
Barometer: 30.01 inHg , 1016.3 hPa
Clouds: Clear
Visibility: 10 miles , 16 km
2020/08/13 16:53 KCRE 131653Z 17009KT 10SM CLR 29/24 A3001 RMK AO1 SLP162 T02890239
 
KHYW - Conway-Horry Cty, South Carolina, USA
Distance from station: SW 22mi, 35km
Updated: 08/13/2020 1:35pm
Partly cloudy
Partly cloudy
 Wind from S
Wind: S 9 mph , 15 km/h
Temperature: 86°F , 30°C
Heat Index: 93°F , 34°C
Dew Point: 73°F , 23°C
Humidity: 66%
Barometer: 30.00 inHg , 1015.9 hPa
Clouds: Partly cloudy
Visibility: 10 miles , 16 km
Cloud details: Partly cloudy 2300 ft
2020/08/13 17:35 KHYW 131735Z AUTO 17008KT 10SM SCT023 30/23 A3000 RMK AO2 LTG DSNT SW
KMAO - Marion, South Carolina, USA
Distance from station: WNW 28mi, 45km
Updated: 08/13/2020 1:15pm
Partly cloudy
Partly cloudy
 Wind from calm
Wind: Calm
Temperature: 86°F , 30°C
Heat Index: 95°F , 35°C
Dew Point: 75°F , 24°C
Humidity: 70%
Barometer: 30.00 inHg , 1015.9 hPa
Clouds: Partly cloudy
Visibility: 10 miles , 16 km
Cloud details: Partly cloudy 2400 ft
Partly cloudy 4800 ft
Partly cloudy 6000 ft
2020/08/13 17:15 KMAO 131715Z AUTO 00000KT 10SM SCT024 SCT048 SCT060 30/24 A3000 RMK AO2
 
KMYR - Myrtle Beach, South Carolina, USA
Distance from station: S 28mi, 45km
Updated: 08/13/2020 12:56pm
Partly cloudy
Partly cloudy
 Wind from S
Wind: S 10 mph , 17 km/h
Temperature: 84°F , 29°C
Heat Index: 94°F , 34°C
Dew Point: 77°F , 25°C
Humidity: 79%
Barometer: 30.02 inHg , 1016.6 hPa
Clouds: Partly cloudy
Visibility: 10 miles , 16 km
Cloud details: Partly cloudy 3700 ft
2020/08/13 16:56 KMYR 131656Z 17009KT 10SM SCT037 29/25 A3002 RMK AO2 SLP166 T02890250
KLBT - Lumberton, North Carolina, USA
Distance from station: NNW 39mi, 62km
Updated: 03/28/2019 9:55am
NOT Current

 
2019/03/28 13:55 KLBT 281355Z MKT MSM M M M M A0000 M M RMK TEST
 
KSUT - Southport, North Carolina, USA
Distance from station: E 46mi, 74km
Updated: 08/13/2020 1:15pm
Partly cloudy
Partly cloudy
 Wind from SW
Wind: SW 12 mph , 19 km/h
Temperature: 86°F , 30°C
Heat Index: 97°F , 36°C
Dew Point: 77°F , 25°C
Humidity: 75%
Barometer: 30.00 inHg , 1015.9 hPa
Clouds: Partly cloudy
Visibility: 10 miles , 16 km
Cloud details: Partly cloudy 2200 ft
2020/08/13 17:15 KSUT 131715Z AUTO 23010KT 200V260 10SM SCT022 30/25 A3000 RMK AO2 T02970245
KFLO - Florence, South Carolina, USA
Distance from station: W 50mi, 81km
Updated: 08/13/2020 1:00pm
Partly cloudy
Partly cloudy
 Wind from SSW
Wind: SSW 5 mph , 7 km/h
Temperature: 88°F , 31°C
Heat Index: 96°F , 36°C
Dew Point: 73°F , 23°C
Humidity: 62%
Barometer: 30.00 inHg , 1015.9 hPa
Clouds: Partly cloudy
Visibility: 10 miles , 16 km
Cloud details: Partly cloudy 2800 ft
2020/08/13 17:00 KFLO 131700Z 20004KT 10SM SCT028 31/23 A3000 RMK AO2 T03110233